createdAt,value
2022-11-20T00:00:15.870Z,-0.80
2022-11-20T00:02:42.450Z,-0.70
2022-11-20T00:05:09.367Z,-0.70
2022-11-20T00:07:36.068Z,-0.50
2022-11-20T00:10:02.767Z,-0.50
2022-11-20T00:12:29.468Z,-0.60
2022-11-20T00:14:56.040Z,-0.60
2022-11-20T00:17:22.668Z,-0.50
2022-11-20T00:19:49.312Z,-0.40
2022-11-20T00:22:15.977Z,-0.50
2022-11-20T00:24:49.125Z,-0.50
2022-11-20T00:27:23.623Z,-0.30
2022-11-20T00:29:54.795Z,-0.30
2022-11-20T00:32:21.404Z,-0.30
2022-11-20T00:34:48.055Z,-0.30
2022-11-20T00:37:14.656Z,-0.30
2022-11-20T00:39:46.000Z,-0.30
2022-11-20T00:42:15.859Z,-0.30
2022-11-20T00:44:45.168Z,-0.40
2022-11-20T00:47:16.198Z,-0.40
2022-11-20T00:49:42.797Z,-0.40
2022-11-20T00:52:10.687Z,-0.40
2022-11-20T00:57:18.701Z,-0.30
2022-11-20T00:59:46.250Z,-0.30
2022-11-20T01:02:14.214Z,-0.30
2022-11-20T01:04:46.652Z,-0.20
2022-11-20T01:07:13.390Z,-0.30
2022-11-20T01:09:40.066Z,-0.50
2022-11-20T01:12:06.776Z,-0.50
2022-11-20T01:14:33.439Z,-0.20
2022-11-20T01:17:00.101Z,-0.30
2022-11-20T01:19:26.762Z,-0.40
2022-11-20T01:21:54.544Z,-0.30
2022-11-20T01:24:21.777Z,-0.30
2022-11-20T01:26:49.636Z,-0.40
2022-11-20T01:29:21.413Z,-0.40
2022-11-20T01:31:48.345Z,-0.50
2022-11-20T01:34:16.123Z,-0.50
2022-11-20T01:36:43.070Z,-0.40
2022-11-20T01:39:16.411Z,-0.60
2022-11-20T01:42:10.354Z,-0.40
2022-11-20T01:44:53.863Z,-0.40
2022-11-20T01:47:26.640Z,-0.30
2022-11-20T01:50:02.196Z,-0.30
2022-11-20T01:52:32.247Z,-0.40
2022-11-20T01:55:04.659Z,-0.40
2022-11-20T01:57:32.725Z,-0.40
2022-11-20T02:00:01.759Z,-0.50
2022-11-20T02:02:28.895Z,-0.50
2022-11-20T02:04:57.872Z,-0.60
2022-11-20T02:07:24.818Z,-0.40
2022-11-20T02:09:57.387Z,-0.50
2022-11-20T02:12:44.012Z,-0.50
2022-11-20T02:15:10.697Z,-0.50
2022-11-20T02:17:37.453Z,-0.50
2022-11-20T02:20:04.501Z,-0.70
2022-11-20T02:22:41.150Z,-0.30
2022-11-20T02:25:08.624Z,-0.30
2022-11-20T02:27:35.281Z,-0.30
2022-11-20T02:30:03.102Z,-0.30
2022-11-20T02:32:34.017Z,-0.40
2022-11-20T02:35:11.218Z,-0.40
2022-11-20T02:37:39.810Z,-0.20
2022-11-20T02:40:06.900Z,-0.30
2022-11-20T02:42:33.576Z,-0.20
2022-11-20T02:45:00.215Z,-0.40
2022-11-20T02:47:26.866Z,-0.30
2022-11-20T02:49:53.527Z,-0.30
2022-11-20T02:52:20.186Z,-0.30
2022-11-20T02:54:46.861Z,-0.20
2022-11-20T02:57:13.521Z,-0.30
2022-11-20T02:59:40.194Z,-0.70
2022-11-20T03:02:07.039Z,-0.60
2022-11-20T03:04:33.712Z,-0.40
2022-11-20T03:07:00.473Z,0.80
2022-11-20T03:09:27.207Z,-0.40
2022-11-20T03:11:53.879Z,-0.40
2022-11-20T03:14:20.556Z,-0.40
2022-11-20T03:16:47.197Z,-0.50
2022-11-20T03:19:13.890Z,-0.40
2022-11-20T03:21:40.832Z,-0.50
2022-11-20T03:24:07.586Z,-0.60
2022-11-20T03:26:34.355Z,-0.50
2022-11-20T03:29:02.290Z,-0.70
2022-11-20T03:34:50.803Z,-0.50
2022-11-20T03:37:17.473Z,-0.50
2022-11-20T03:39:44.050Z,-0.70
2022-11-20T03:42:38.187Z,-0.80
2022-11-20T03:45:08.247Z,-0.80
2022-11-20T03:47:36.721Z,-0.60
2022-11-20T03:50:10.647Z,-0.60
2022-11-20T03:52:43.483Z,-0.30
2022-11-20T03:55:10.128Z,-0.60
2022-11-20T03:57:36.763Z,-0.60
2022-11-20T04:00:05.304Z,-0.60
2022-11-20T04:02:36.989Z,-0.40
2022-11-20T04:05:03.653Z,-0.50
2022-11-20T04:07:30.263Z,-0.60
2022-11-20T04:09:56.905Z,-0.60
2022-11-20T04:12:23.497Z,-0.90
2022-11-20T04:14:50.097Z,-0.80
2022-11-20T04:17:16.732Z,-0.70
2022-11-20T04:19:43.374Z,-0.70
2022-11-20T04:22:10.095Z,-0.90
2022-11-20T04:24:36.740Z,-1.10
2022-11-20T04:27:03.294Z,-0.60
2022-11-20T04:29:29.968Z,-0.60
2022-11-20T04:31:56.609Z,-0.80
2022-11-20T04:34:23.215Z,-0.80
2022-11-20T04:36:49.780Z,-0.90
2022-11-20T04:39:16.650Z,-0.80
2022-11-20T04:41:43.671Z,-0.20
2022-11-20T04:44:10.405Z,-0.70
2022-11-20T04:46:39.016Z,-0.80
2022-11-20T04:49:05.674Z,-0.80
2022-11-20T04:51:32.903Z,-0.80
2022-11-20T04:53:59.782Z,-0.80
2022-11-20T04:56:26.432Z,-1.00
2022-11-20T04:58:52.997Z,-0.60
2022-11-20T05:01:21.096Z,-0.50
2022-11-20T05:03:48.080Z,-0.60
2022-11-20T05:06:16.018Z,-0.70
2022-11-20T05:08:42.652Z,-0.60
2022-11-20T05:11:10.842Z,-0.60
2022-11-20T05:13:37.514Z,-0.50
2022-11-20T05:16:04.859Z,-0.60
2022-11-20T05:18:31.894Z,-0.50
2022-11-20T05:20:59.140Z,-1.00
2022-11-20T05:23:25.856Z,-0.80
2022-11-20T05:25:58.818Z,-1.00
2022-11-20T05:28:26.985Z,-0.80
2022-11-20T05:30:53.596Z,-0.80
2022-11-20T05:33:20.522Z,-0.50
2022-11-20T05:35:47.358Z,-0.50
2022-11-20T05:38:13.982Z,-0.70
2022-11-20T05:40:40.579Z,-0.80
2022-11-20T05:43:07.164Z,-0.80
2022-11-20T05:45:33.726Z,-0.60
2022-11-20T05:48:03.783Z,-0.60
2022-11-20T05:50:30.648Z,-0.60
2022-11-20T05:52:59.403Z,-0.50
2022-11-20T05:55:26.438Z,-0.80
2022-11-20T05:57:53.998Z,-0.50
2022-11-20T06:00:20.623Z,-0.50
2022-11-20T06:02:47.325Z,-0.50
2022-11-20T06:05:14.035Z,-0.60
2022-11-20T06:07:40.754Z,-0.50
2022-11-20T06:10:07.541Z,-0.90
2022-11-20T06:12:34.144Z,-0.60
2022-11-20T06:15:01.018Z,-0.60
2022-11-20T06:17:27.783Z,-0.60
2022-11-20T06:19:54.408Z,-0.70
2022-11-20T06:22:21.010Z,-1.10
2022-11-20T06:24:47.649Z,-0.90
2022-11-20T06:27:14.357Z,-1.00
2022-11-20T06:29:40.921Z,-0.90
2022-11-20T06:32:07.526Z,-0.80
2022-11-20T06:34:34.151Z,-0.50
2022-11-20T06:37:00.757Z,-0.90
2022-11-20T06:39:27.388Z,-0.80
2022-11-20T06:41:58.581Z,-0.50
2022-11-20T06:44:25.627Z,-0.50
2022-11-20T06:46:52.270Z,-0.60
2022-11-20T06:49:19.023Z,-0.70
2022-11-20T06:51:45.878Z,-0.60
2022-11-20T06:54:12.530Z,-0.50
2022-11-20T06:56:39.142Z,-0.40
2022-11-20T06:59:06.903Z,-0.60
2022-11-20T07:01:33.646Z,-0.70
2022-11-20T07:04:00.263Z,-0.70
2022-11-20T07:06:26.881Z,-0.50
2022-11-20T07:08:53.650Z,-0.40
2022-11-20T07:11:20.277Z,-0.30
2022-11-20T07:13:46.831Z,-0.30
2022-11-20T07:16:13.702Z,-0.20
2022-11-20T07:18:40.345Z,-0.20
2022-11-20T07:21:07.964Z,-0.20
2022-11-20T07:23:34.791Z,-0.40
2022-11-20T07:26:05.627Z,-0.20
2022-11-20T07:28:32.310Z,-0.20
2022-11-20T07:30:58.975Z,-0.40
2022-11-20T07:33:25.631Z,-0.30
2022-11-20T07:35:52.250Z,-0.20
2022-11-20T07:38:18.873Z,-0.20
2022-11-20T07:40:45.599Z,-0.40
2022-11-20T07:43:12.239Z,-0.40
2022-11-20T07:45:38.994Z,-0.10
2022-11-20T07:48:05.658Z,-0.20
2022-11-20T07:50:32.336Z,0.10
2022-11-20T07:53:03.618Z,0.00
2022-11-20T07:55:30.204Z,0.20
2022-11-20T07:57:57.839Z,0.20
2022-11-20T08:00:24.446Z,0.20
2022-11-20T08:02:51.313Z,0.30
2022-11-20T08:05:17.995Z,0.30
2022-11-20T08:07:45.138Z,0.40
2022-11-20T08:10:13.110Z,0.30
2022-11-20T08:15:25.848Z,0.40
2022-11-20T08:18:15.305Z,0.30
2022-11-20T08:20:41.065Z,0.50
2022-11-20T08:23:08.670Z,0.50
2022-11-20T08:25:36.011Z,0.60
2022-11-20T08:28:10.288Z,0.40
2022-11-20T08:30:38.884Z,0.70
2022-11-20T08:33:09.871Z,0.50
2022-11-20T08:35:37.247Z,0.60
2022-11-20T08:38:04.520Z,0.40
2022-11-20T08:40:31.657Z,0.20
2022-11-20T08:42:58.312Z,0.20
2022-11-20T08:45:27.395Z,0.40
2022-11-20T08:48:00.726Z,0.30
2022-11-20T08:50:27.330Z,0.40
2022-11-20T08:52:53.954Z,0.10
2022-11-20T08:55:20.548Z,0.40
2022-11-20T08:57:50.816Z,0.40
2022-11-20T09:00:17.819Z,0.60
2022-11-20T09:02:44.459Z,0.50
2022-11-20T09:05:11.045Z,0.50
2022-11-20T09:07:37.837Z,0.40
2022-11-20T09:12:52.667Z,0.70
2022-11-20T09:15:19.845Z,0.50
2022-11-20T09:17:53.491Z,-0.50
2022-11-20T09:20:20.230Z,0.90
2022-11-20T09:22:46.915Z,0.20
2022-11-20T09:25:13.562Z,0.50
2022-11-20T09:27:41.438Z,0.50
2022-11-20T09:30:08.361Z,0.60
2022-11-20T09:32:35.016Z,0.60
2022-11-20T09:37:28.011Z,0.70
2022-11-20T09:39:59.113Z,1.00
2022-11-20T09:42:36.944Z,0.80
2022-11-20T09:45:12.659Z,0.80
2022-11-20T09:47:52.969Z,0.90
2022-11-20T09:50:30.184Z,1.10
2022-11-20T09:52:59.807Z,1.10
2022-11-20T09:55:26.577Z,1.10
2022-11-20T09:57:53.664Z,1.20
2022-11-20T10:00:27.681Z,1.60
2022-11-20T10:03:14.661Z,1.60
2022-11-20T10:05:45.570Z,1.70
2022-11-20T10:08:12.261Z,1.50
2022-11-20T10:10:52.339Z,1.50
2022-11-20T10:13:32.248Z,1.50
2022-11-20T10:16:01.837Z,1.60
2022-11-20T10:18:31.432Z,1.60
2022-11-20T10:21:10.274Z,1.70
2022-11-20T10:23:36.801Z,1.60
2022-11-20T10:29:36.116Z,1.60
2022-11-20T10:32:11.732Z,1.50
2022-11-20T10:34:52.513Z,1.60
2022-11-20T10:37:23.222Z,1.60
2022-11-20T10:40:31.176Z,1.40
2022-11-20T10:43:02.926Z,1.90
2022-11-20T10:45:54.414Z,1.90
2022-11-20T10:48:36.547Z,1.90
2022-11-20T10:51:13.542Z,1.70
2022-11-20T10:54:03.174Z,1.50
2022-11-20T10:56:49.947Z,1.50
2022-11-20T11:00:03.128Z,1.50
2022-11-20T11:03:13.493Z,1.60
2022-11-20T11:12:26.885Z,2.30
2022-11-20T11:14:54.745Z,2.40
2022-11-20T11:20:29.307Z,4.30
2022-11-20T11:23:11.435Z,5.10
2022-11-20T11:29:18.283Z,4.60
2022-11-20T11:31:50.497Z,3.80
2022-11-20T11:34:18.209Z,3.80
2022-11-20T11:36:53.023Z,3.60
2022-11-20T11:39:21.093Z,3.30
2022-11-20T11:41:48.527Z,3.70
2022-11-20T11:44:38.519Z,3.40
2022-11-20T11:47:07.346Z,3.40
2022-11-20T11:49:33.971Z,3.30
2022-11-20T11:52:00.545Z,3.40
2022-11-20T11:54:30.479Z,3.20
2022-11-20T11:57:00.148Z,3.30
2022-11-20T11:59:29.810Z,3.30
2022-11-20T12:02:00.554Z,3.50
2022-11-20T12:04:49.669Z,3.70
2022-11-20T12:07:50.354Z,3.70
2022-11-20T12:10:19.979Z,3.60
2022-11-20T12:12:49.101Z,3.60
2022-11-20T12:15:21.163Z,3.50
2022-11-20T12:17:48.069Z,3.40
2022-11-20T12:20:15.275Z,3.40
2022-11-20T12:22:52.556Z,3.40
2022-11-20T12:25:53.767Z,3.10
2022-11-20T12:28:54.007Z,3.10
2022-11-20T12:31:32.351Z,2.90
2022-11-20T12:34:24.659Z,2.90
2022-11-20T12:36:56.904Z,2.90
2022-11-20T12:39:36.592Z,3.00
2022-11-20T12:42:32.580Z,3.10
2022-11-20T12:45:24.889Z,3.10
2022-11-20T12:48:11.145Z,3.10
2022-11-20T12:51:25.738Z,3.10
2022-11-20T12:54:02.930Z,2.90
2022-11-20T12:56:44.623Z,2.90
2022-11-20T12:59:30.039Z,2.90
2022-11-20T13:02:00.575Z,2.90
2022-11-20T13:04:54.686Z,2.90
2022-11-20T13:07:22.420Z,3.00
2022-11-20T13:09:50.775Z,2.80
2022-11-20T13:12:36.933Z,2.70
2022-11-20T13:15:12.712Z,2.60
2022-11-20T13:17:58.120Z,2.60
2022-11-20T13:20:24.831Z,2.70
2022-11-20T13:22:58.755Z,2.70
2022-11-20T13:25:25.321Z,2.80
2022-11-20T13:27:51.980Z,2.80
2022-11-20T13:30:19.770Z,2.70
2022-11-20T13:33:07.636Z,2.80
2022-11-20T13:35:38.862Z,2.70
2022-11-20T13:38:07.239Z,2.70
2022-11-20T13:40:34.783Z,2.70
2022-11-20T13:43:20.316Z,2.50
2022-11-20T13:46:04.007Z,2.70
2022-11-20T13:48:32.347Z,2.70
2022-11-20T13:51:07.521Z,2.80
2022-11-20T13:53:44.172Z,2.80
2022-11-20T13:56:25.847Z,2.70
2022-11-20T13:59:14.862Z,2.70
2022-11-20T14:01:43.143Z,2.80
2022-11-20T14:04:10.903Z,2.80
2022-11-20T14:06:44.961Z,2.90
2022-11-20T14:09:26.611Z,2.90
2022-11-20T14:11:53.259Z,2.90
2022-11-20T14:14:22.119Z,2.80
2022-11-20T14:16:49.470Z,2.80
2022-11-20T14:19:22.127Z,2.80
2022-11-20T14:21:49.313Z,2.80
2022-11-20T14:24:20.163Z,2.70
2022-11-20T14:26:47.299Z,2.70
2022-11-20T14:29:22.538Z,2.70
2022-11-20T14:31:54.135Z,2.70
2022-11-20T14:34:23.413Z,2.70
2022-11-20T14:36:53.249Z,2.70
2022-11-20T14:39:23.587Z,2.60
2022-11-20T14:41:54.145Z,2.60
2022-11-20T14:44:41.000Z,2.60
2022-11-20T14:47:07.844Z,2.50
2022-11-20T14:49:34.558Z,2.50
2022-11-20T14:52:12.028Z,2.20
2022-11-20T14:54:46.088Z,2.50
2022-11-20T14:57:32.304Z,2.50
2022-11-20T15:00:06.767Z,2.50
2022-11-20T15:02:33.392Z,2.50
2022-11-20T15:05:02.236Z,2.40
2022-11-20T15:07:30.410Z,2.30
2022-11-20T15:10:01.188Z,2.30
2022-11-20T15:12:27.940Z,2.40
2022-11-20T15:14:54.540Z,2.30
2022-11-20T15:17:21.095Z,2.20
2022-11-20T15:19:47.693Z,2.30
2022-11-20T15:22:14.628Z,2.20
2022-11-20T15:24:41.227Z,2.10
2022-11-20T15:27:08.847Z,2.10
2022-11-20T15:29:35.480Z,2.20
2022-11-20T15:32:03.053Z,2.00
2022-11-20T15:34:29.939Z,2.20
2022-11-20T15:36:56.496Z,2.60
2022-11-20T15:39:23.086Z,2.10
2022-11-20T15:41:49.716Z,2.10
2022-11-20T15:44:16.275Z,2.10
2022-11-20T15:46:43.428Z,2.20
2022-11-20T15:49:12.668Z,2.00
2022-11-20T15:51:40.702Z,2.10
2022-11-20T15:54:11.695Z,2.10
2022-11-20T15:56:38.623Z,2.20
2022-11-20T15:59:05.404Z,2.20
2022-11-20T16:01:32.278Z,2.00
2022-11-20T16:03:59.977Z,2.10
2022-11-20T16:06:26.545Z,2.10
2022-11-20T16:08:53.113Z,2.10
2022-11-20T16:11:19.733Z,2.20
2022-11-20T16:14:05.218Z,2.20
2022-11-20T16:16:31.859Z,2.10
2022-11-20T16:18:58.623Z,2.20
2022-11-20T16:21:31.534Z,2.20
2022-11-20T16:24:07.567Z,2.20
2022-11-20T16:26:34.694Z,2.20
2022-11-20T16:29:01.624Z,2.20
2022-11-20T16:31:28.190Z,2.20
2022-11-20T16:33:59.165Z,2.10
2022-11-20T16:36:26.455Z,2.20
2022-11-20T16:38:57.189Z,2.10
2022-11-20T16:41:24.576Z,2.10
2022-11-20T16:43:52.277Z,2.00
2022-11-20T16:46:20.634Z,2.10
2022-11-20T16:48:58.254Z,2.20
2022-11-20T16:51:25.234Z,2.20
2022-11-20T16:53:52.265Z,2.20
2022-11-20T16:56:20.171Z,2.20
2022-11-20T16:58:49.382Z,2.20
2022-11-20T17:01:17.317Z,2.20
2022-11-20T17:03:44.744Z,2.20
2022-11-20T17:06:15.559Z,2.20
2022-11-20T17:08:42.370Z,2.20
2022-11-20T17:11:09.784Z,2.10
2022-11-20T17:13:39.819Z,1.90
2022-11-20T17:16:10.111Z,2.10
2022-11-20T17:18:36.761Z,2.10
2022-11-20T17:21:05.369Z,2.00
2022-11-20T17:23:32.455Z,3.10
2022-11-20T17:26:02.629Z,2.10
2022-11-20T17:28:29.398Z,2.10
2022-11-20T17:30:59.436Z,2.00
2022-11-20T17:33:26.084Z,2.00
2022-11-20T17:35:52.692Z,2.00
2022-11-20T17:38:19.324Z,2.00
2022-11-20T17:40:46.283Z,2.10
2022-11-20T17:43:12.949Z,2.00
2022-11-20T17:45:39.670Z,2.00
2022-11-20T17:48:06.318Z,2.10
2022-11-20T17:50:32.886Z,2.10
2022-11-20T17:52:59.459Z,2.00
2022-11-20T17:55:26.081Z,2.00
2022-11-20T17:57:52.726Z,2.00
2022-11-20T18:00:20.159Z,2.00
2022-11-20T18:02:46.718Z,2.20
2022-11-20T18:05:13.328Z,2.10
2022-11-20T18:07:41.934Z,2.10
2022-11-20T18:10:09.041Z,2.10
2022-11-20T18:12:35.642Z,2.10
2022-11-20T18:15:02.167Z,2.00
2022-11-20T18:17:28.764Z,2.10
2022-11-20T18:20:21.683Z,2.10
2022-11-20T18:22:42.932Z,2.10
2022-11-20T18:25:09.587Z,2.10
2022-11-20T18:27:36.212Z,2.10
2022-11-20T18:30:02.855Z,2.20
2022-11-20T18:32:29.458Z,2.20
2022-11-20T18:34:56.013Z,2.20
2022-11-20T18:37:22.547Z,2.10
2022-11-20T18:39:50.301Z,2.10
2022-11-20T18:42:35.766Z,2.00
2022-11-20T18:45:04.376Z,1.90
2022-11-20T18:47:31.896Z,2.20
2022-11-20T18:49:59.211Z,2.20
2022-11-20T18:52:27.171Z,2.20
2022-11-20T18:54:53.781Z,2.20
2022-11-20T18:57:24.859Z,2.20
2022-11-20T18:59:51.465Z,2.10
2022-11-20T19:02:19.031Z,2.10
2022-11-20T19:04:45.668Z,2.20
2022-11-20T19:07:12.727Z,2.20
2022-11-20T19:09:40.345Z,2.20
2022-11-20T19:12:07.948Z,2.10
2022-11-20T19:14:34.587Z,2.10
2022-11-20T19:17:01.183Z,2.10
2022-11-20T19:19:28.965Z,2.10
2022-11-20T19:21:55.575Z,2.10
2022-11-20T19:24:22.991Z,2.20
2022-11-20T19:26:49.629Z,2.20
2022-11-20T19:29:16.642Z,2.10
2022-11-20T19:31:43.291Z,2.20
2022-11-20T19:34:11.527Z,2.10
2022-11-20T19:36:44.372Z,2.10
2022-11-20T19:39:11.503Z,2.10
2022-11-20T19:41:39.069Z,2.10
2022-11-20T19:44:09.610Z,2.00
2022-11-20T19:46:36.654Z,2.20
2022-11-20T19:49:03.798Z,2.20
2022-11-20T19:51:32.513Z,2.20
2022-11-20T19:53:59.529Z,2.20
2022-11-20T19:56:29.319Z,2.10
2022-11-20T19:58:56.698Z,2.20
2022-11-20T20:01:24.529Z,2.20
2022-11-20T20:03:51.256Z,2.20
2022-11-20T20:06:20.713Z,2.20
2022-11-20T20:08:47.888Z,2.20
2022-11-20T20:11:15.517Z,2.10
2022-11-20T20:13:42.499Z,2.30
2022-11-20T20:16:10.023Z,2.20
2022-11-20T20:18:36.620Z,2.20
2022-11-20T20:21:07.283Z,2.30
2022-11-20T20:23:35.400Z,2.30
2022-11-20T20:26:02.268Z,2.30
2022-11-20T20:28:29.524Z,2.30
2022-11-20T20:30:56.327Z,2.30
2022-11-20T20:33:23.291Z,2.40
2022-11-20T20:35:49.904Z,2.40
2022-11-20T20:38:16.434Z,2.40
2022-11-20T20:40:46.934Z,2.40
2022-11-20T20:43:13.462Z,2.50
2022-11-20T20:45:47.693Z,2.50
2022-11-20T20:48:15.627Z,2.50
2022-11-20T20:50:43.010Z,2.60
2022-11-20T20:53:09.879Z,2.60
2022-11-20T20:55:36.485Z,2.70
2022-11-20T20:58:03.190Z,2.70
2022-11-20T21:00:29.825Z,2.60
2022-11-20T21:02:56.350Z,2.70
2022-11-20T21:05:22.933Z,2.70
2022-11-20T21:08:08.160Z,2.70
2022-11-20T21:10:34.738Z,2.70
2022-11-20T21:13:01.339Z,2.70
2022-11-20T21:15:27.953Z,2.70
2022-11-20T21:17:54.569Z,2.70
2022-11-20T21:20:47.395Z,2.70
2022-11-20T21:23:14.454Z,2.80
2022-11-20T21:25:41.091Z,2.80
2022-11-20T21:28:08.072Z,2.80
2022-11-20T21:30:34.749Z,2.90
2022-11-20T21:33:01.377Z,2.90
2022-11-20T21:35:28.271Z,2.90
2022-11-20T21:37:54.826Z,3.10
2022-11-20T21:40:21.479Z,3.10
2022-11-20T21:42:48.030Z,3.20
2022-11-20T21:45:14.586Z,2.90
2022-11-20T21:47:41.185Z,2.90
2022-11-20T21:50:07.891Z,4.80
2022-11-20T21:52:34.521Z,3.40
2022-11-20T21:55:01.076Z,3.50
2022-11-20T21:57:27.680Z,3.40
2022-11-20T21:59:54.241Z,3.50
2022-11-20T22:02:20.854Z,3.60
2022-11-20T22:04:48.562Z,3.60
2022-11-20T22:07:15.137Z,3.40
2022-11-20T22:09:41.779Z,3.70
2022-11-20T22:12:08.351Z,3.60
2022-11-20T22:14:40.304Z,3.50
2022-11-20T22:17:11.950Z,3.80
2022-11-20T22:19:38.519Z,4.90
2022-11-20T22:22:05.175Z,3.40
2022-11-20T22:24:31.728Z,3.20
2022-11-20T22:26:58.471Z,3.40
2022-11-20T22:29:25.039Z,3.80
2022-11-20T22:31:52.636Z,3.80
2022-11-20T22:34:19.266Z,3.50
2022-11-20T22:36:45.864Z,3.80
2022-11-20T22:39:12.553Z,3.70
2022-11-20T22:41:39.189Z,3.70
2022-11-20T22:44:06.755Z,3.10
2022-11-20T22:46:34.707Z,4.00
2022-11-20T22:49:02.402Z,3.60
2022-11-20T22:51:30.286Z,3.30
2022-11-20T22:53:56.897Z,3.50
2022-11-20T22:56:23.621Z,3.70
2022-11-20T22:58:51.858Z,3.90
2022-11-20T23:01:20.072Z,3.80
2022-11-20T23:03:48.237Z,3.70
2022-11-20T23:06:15.854Z,3.40
2022-11-20T23:08:42.743Z,3.20
2022-11-20T23:11:10.694Z,3.80
2022-11-20T23:13:37.416Z,3.80
2022-11-20T23:16:22.154Z,4.00
2022-11-20T23:18:48.887Z,4.40
2022-11-20T23:21:16.723Z,3.00
2022-11-20T23:23:44.170Z,4.10
2022-11-20T23:26:11.798Z,3.80
2022-11-20T23:28:39.241Z,3.80
2022-11-20T23:31:06.273Z,3.40
2022-11-20T23:33:35.270Z,3.60
2022-11-20T23:36:01.845Z,4.10
2022-11-20T23:38:28.501Z,4.10
2022-11-20T23:40:55.106Z,3.90
2022-11-20T23:43:22.142Z,4.40
2022-11-20T23:45:53.026Z,4.30
2022-11-20T23:48:20.182Z,4.50
2022-11-20T23:50:47.040Z,3.60
2022-11-20T23:56:01.051Z,4.70
2022-11-20T23:58:31.234Z,4.70
